메인 페이지
METAR-TAF:

METAR-TAF

공항 :

뉴어크 리버티 국제공항

뉴어크, 뉴저지, 미국

위도: 40-40-57N, 경도: 074-10-10W, 고도: 5m

현재 날씨관측

예보는 58분 전, 07:51시(UTC)에 발표되었습니다.
북북동8kt
온도 10°C
습도 87%
기압 1006 hPa
시정: 16.1km
고도 800ft 상공 구름 많음
고도 2800ft 상공 흐림

METAR: KEWR 100751Z 02008KT 10SM BKN008 OVC028 10/08 A2971 RMK AO2 RAE34 SLP059 P0000 T01000078 $

시각: 04:49 (08:49 UTC)

예보

예보는 19분 전, 08:30시(UTC)에 발표되었습니다.
예보 대상 시간: 10일 09시부터 11일 12시까지 (UTC)
9kt
시정: 10km
고도 800ft 상공 구름 보통
고도 1200ft 상공 흐림
일시적
10일 09시부터 10일 11시까지 (UTC)
고도 800ft 상공 구름 많음
10일 1100시부터 (UTC)
북서11kt
시정: 10km
고도 1500ft 상공 구름 많음
고도 2500ft 상공 흐림
10일 1400시부터 (UTC)
북서12kt, 순간 최대 풍속 18kt
시정: 10km
고도 3500ft 상공 구름 많음
10일 1900시부터 (UTC)
서북서9kt
시정: 10km
고도 3500ft 상공 구름 많음
10일 2200시부터 (UTC)
7kt
시정: 10km
고도 5000ft 상공 구름 많음
11일 0100시부터 (UTC)
6kt
시정: 10km
고도 25000ft 상공 구름 보통
11일 0600시부터 (UTC)
북서8kt
시정: 10km
고도 15000ft 상공 구름 보통
고도 25000ft 상공 구름 많음

TAF: KEWR 100830Z 1009/1112 36009KT P6SM SCT008 OVC012 TEMPO 1009/1011 BKN008 FM101100 32011KT P6SM BKN015 OVC025 FM101400 32012G18KT P6SM BKN035 FM101900 30009KT P6SM BKN035 FM102200 28007KT P6SM BKN050 FM110100 28006KT P6SM SCT250 FM110600 31008KT P6SM SCT150 BKN250

4,000개 이상의 공항 관측 자료 및 예보 (METAR 및 TAF 보고).

지도상에서 검색 가능한 기상관측소가 노란 점과 빨간 점으로 표시되어 있습니다.

기상관측소 명을 보려면 표시 위로 마우스를 이동하세요.

날씨 관측과 예보를 보려면 클릭하세요.

지도 변경 : 확대하려면 엑스 표시가 있는 녹색 버튼, 축소하려면 빼기 표시가 있는 녹색 버튼, 다음 페이지의 지도를 보려면 녹색 화살표를 클릭하세요.


METAR-TAF: